Time;durP1;ratioP1;P1;durP2;ratioP2;P2;SDS_P1;SDS_P2;PMS_P1;PMS_P2;Temp;Humidity;BMP_temperature;BMP_pressure;BME280_temperature;BME280_humidity;BME280_pressure;Samples;Min_cycle;Max_cycle;Signal;HPM_P1;HPM_P2
2022/01/21 00:02:16;;;;;;;18.93;7.90;;;3.60;99.90;;;;;;5095271;28;20454;-87
2022/01/21 00:04:43;;;;;;;20.37;6.57;;;3.60;99.90;;;;;;5095497;28;20434;-83
2022/01/21 00:07:15;;;;;;;18.67;6.30;;;3.60;99.90;;;;;;5095338;28;20456;-88
2022/01/21 00:09:46;;;;;;;22.90;6.70;;;3.40;99.90;;;;;;5095417;28;20445;-87
2022/01/21 00:12:16;;;;;;;24.00;6.43;;;3.50;99.90;;;;;;5094901;28;20929;-88
2022/01/21 00:14:49;;;;;;;20.47;5.77;;;3.60;99.90;;;;;;5095156;28;20461;-86
2022/01/21 00:17:23;;;;;;;21.73;6.65;;;3.80;99.90;;;;;;5094616;28;20453;-85
2022/01/21 00:30:05;;;;;;;19.50;6.90;;;3.80;99.90;;;;;;5095065;28;20642;-88
2022/01/21 00:31:00;;;;;;;16.27;5.03;;;4.20;99.90;;;;;;5094883;28;20488;-89
2022/01/21 00:33:27;;;;;;;20.67;5.73;;;4.00;99.90;;;;;;5095182;28;20434;-86
2022/01/21 00:35:58;;;;;;;19.00;5.23;;;3.80;99.90;;;;;;5094766;28;20453;-83
2022/01/21 00:38:32;;;;;;;19.77;5.80;;;3.70;99.90;;;;;;5095021;28;20454;-86
2022/01/21 00:41:04;;;;;;;22.63;7.18;;;3.50;99.90;;;;;;5093366;28;20943;-86
2022/01/21 00:43:43;;;;;;;16.23;5.47;;;3.50;99.90;;;;;;5094908;28;20231;-85
2022/01/21 00:46:16;;;;;;;15.10;5.80;;;3.40;99.90;;;;;;5094756;28;20974;-84
2022/01/21 00:48:54;;;;;;;20.70;5.57;;;3.40;99.90;;;;;;5094596;28;20437;-86
2022/01/21 00:51:25;;;;;;;20.37;5.20;;;3.50;99.90;;;;;;5094495;28;20457;-87
2022/01/21 00:53:59;;;;;;;18.27;5.43;;;3.40;99.90;;;;;;5094329;28;20925;-83
2022/01/21 00:56:26;;;;;;;22.40;6.10;;;3.40;99.90;;;;;;5094480;28;20441;-86
2022/01/21 00:58:59;;;;;;;21.70;5.73;;;3.40;99.90;;;;;;5094439;28;20437;-86
2022/01/21 01:01:29;;;;;;;19.38;5.65;;;3.40;99.90;;;;;;5093840;28;20917;-88
2022/01/21 01:03:57;;;;;;;21.40;5.43;;;3.50;99.90;;;;;;5093916;28;20550;-84
2022/01/21 01:06:26;;;;;;;20.70;5.27;;;3.60;99.90;;;;;;5094262;28;20426;-84
2022/01/21 01:08:56;;;;;;;24.13;5.00;;;3.60;99.90;;;;;;5094194;28;20449;-85
2022/01/21 01:11:32;;;;;;;19.70;4.80;;;3.50;99.90;;;;;;5094839;28;20449;-88
2022/01/21 01:22:17;;;;;;;23.77;5.17;;;3.10;99.90;;;;;;5094104;28;20417;-85
2022/01/21 01:27:39;;;;;;;20.40;4.83;;;3.40;99.90;;;;;;5094247;28;20201;-87
2022/01/21 01:30:11;;;;;;;13.67;4.80;;;3.30;99.90;;;;;;5094081;28;20528;-87
2022/01/21 01:32:40;;;;;;;11.80;3.57;;;3.30;99.90;;;;;;5094153;28;20464;-88
2022/01/21 01:35:11;;;;;;;14.77;4.80;;;3.30;99.90;;;;;;5093789;28;20524;-85
2022/01/21 01:38:01;;;;;;;19.73;4.13;;;3.20;99.90;;;;;;5093726;28;20446;-86
2022/01/21 01:40:32;;;;;;;13.23;4.30;;;3.10;99.90;;;;;;5093734;28;20539;-85
2022/01/21 01:51:31;;;;;;;16.17;3.80;;;3.20;99.90;;;;;;5093498;28;20449;-87
2022/01/21 01:54:03;;;;;;;11.60;3.23;;;3.60;99.90;;;;;;5092975;28;20449;-83
2022/01/21 01:56:34;;;;;;;15.33;4.70;;;3.70;99.90;;;;;;5093316;28;20449;-86
2022/01/21 01:59:04;;;;;;;11.33;3.43;;;3.50;99.90;;;;;;5093659;28;20437;-86
2022/01/21 02:01:31;;;;;;;21.33;4.07;;;3.30;99.90;;;;;;5093375;28;20477;-82
2022/01/21 02:04:15;;;;;;;14.27;4.10;;;3.40;99.90;;;;;;5093572;28;20453;-85
2022/01/21 02:06:49;;;;;;;14.07;4.47;;;3.50;99.90;;;;;;5092881;28;20813;-87
2022/01/21 02:09:17;;;;;;;18.35;5.00;;;3.50;99.90;;;;;;5092741;28;20487;-87
2022/01/21 02:11:44;;;;;;;13.87;3.93;;;3.50;99.90;;;;;;5093441;28;20227;-87
2022/01/21 02:14:20;;;;;;;15.60;3.67;;;3.50;99.90;;;;;;5092952;28;20829;-85
2022/01/21 02:22:27;;;;;;;14.50;2.90;;;3.40;99.90;;;;;;5073193;28;20624;-86
2022/01/21 02:24:57;;;;;;;20.47;3.43;;;3.20;99.90;;;;;;5073613;28;20435;-89
2022/01/21 02:27:25;;;;;;;23.37;3.60;;;3.30;99.90;;;;;;5073155;28;20949;-86
2022/01/21 02:30:03;;;;;;;12.90;3.27;;;3.30;99.90;;;;;;5073442;28;20449;-90
2022/01/21 02:32:30;;;;;;;12.93;3.50;;;3.20;99.90;;;;;;5073601;28;20605;-88
2022/01/21 02:35:04;;;;;;;11.87;3.40;;;3.10;99.90;;;;;;5073608;28;20468;-87
2022/01/21 02:37:35;;;;;;;10.47;2.80;;;3.00;99.90;;;;;;5073364;28;20447;-91
2022/01/21 02:40:17;;;;;;;12.70;3.70;;;3.00;99.90;;;;;;5073464;28;20434;-86
2022/01/21 02:42:47;;;;;;;16.63;3.53;;;3.10;99.90;;;;;;5072837;28;20434;-87
2022/01/21 02:45:20;;;;;;;15.57;3.83;;;3.20;99.90;;;;;;5073320;28;20454;-88
2022/01/21 02:47:53;;;;;;;12.90;3.53;;;3.30;99.90;;;;;;5074005;28;20451;-89
2022/01/21 02:50:19;;;;;;;12.60;3.40;;;3.30;99.90;;;;;;5073988;28;20787;-89
2022/01/21 02:53:07;;;;;;;12.93;3.38;;;3.30;99.90;;;;;;5074272;28;20447;-87
2022/01/21 02:55:35;;;;;;;11.23;2.73;;;3.30;99.90;;;;;;5078623;28;20206;-86
2022/01/21 02:58:02;;;;;;;9.83;2.43;;;3.30;99.90;;;;;;5085082;28;20461;-87
2022/01/21 03:00:31;;;;;;;15.57;3.47;;;3.20;99.90;;;;;;5084983;28;20430;-88
2022/01/21 03:02:59;;;;;;;11.87;2.50;;;3.20;99.90;;;;;;5085125;28;20977;-86
2022/01/21 03:05:26;;;;;;;8.60;2.60;;;3.20;99.90;;;;;;5081689;28;21265;-86
2022/01/21 03:07:58;;;;;;;10.20;2.63;;;3.20;99.90;;;;;;5077971;28;20449;-83
2022/01/21 03:10:26;;;;;;;13.10;2.77;;;3.20;99.90;;;;;;5072497;28;20431;-83
2022/01/21 03:12:53;;;;;;;13.10;2.70;;;3.20;99.90;;;;;;5072175;28;20893;-84
2022/01/21 03:15:20;;;;;;;14.88;3.20;;;3.20;99.90;;;;;;5072120;28;20440;-85
2022/01/21 03:17:47;;;;;;;13.17;3.03;;;3.20;99.90;;;;;;5075248;28;20201;-85
2022/01/21 03:20:17;;;;;;;12.03;2.43;;;3.30;99.90;;;;;;5095236;28;20436;-81
2022/01/21 03:22:45;;;;;;;14.33;2.63;;;3.50;99.90;;;;;;5096498;28;20500;-82
2022/01/21 03:25:14;;;;;;;16.20;2.80;;;3.50;99.90;;;;;;5096108;28;20532;-84
2022/01/21 03:27:42;;;;;;;12.03;2.27;;;3.50;99.90;;;;;;5095789;28;20430;-84
2022/01/21 03:30:11;;;;;;;9.87;3.20;;;3.40;99.90;;;;;;5095531;28;20433;-86
2022/01/21 03:32:39;;;;;;;13.97;2.70;;;3.40;99.90;;;;;;5095849;28;20818;-84
2022/01/21 03:35:09;;;;;;;12.47;3.70;;;3.30;99.90;;;;;;5096018;28;20430;-85
2022/01/21 03:37:39;;;;;;;13.02;3.05;;;3.30;99.90;;;;;;5095618;28;20424;-83
2022/01/21 03:40:07;;;;;;;12.73;3.00;;;3.30;99.90;;;;;;5096201;28;20189;-84
2022/01/21 03:42:35;;;;;;;14.80;3.40;;;3.50;99.90;;;;;;5096223;28;20493;-92
2022/01/21 03:45:04;;;;;;;15.37;2.93;;;3.50;99.90;;;;;;5095897;28;20846;-87
2022/01/21 03:47:34;;;;;;;9.40;2.63;;;3.20;99.90;;;;;;5096311;28;20437;-87
2022/01/21 03:50:19;;;;;;;11.90;3.57;;;3.40;99.90;;;;;;5095804;28;20444;-90
2022/01/21 03:52:52;;;;;;;12.23;3.40;;;3.50;99.90;;;;;;5096409;28;20973;-88
2022/01/21 03:55:22;;;;;;;15.30;3.47;;;3.50;99.90;;;;;;5096493;28;20880;-88
2022/01/21 03:57:53;;;;;;;9.83;2.87;;;3.40;99.90;;;;;;5096369;28;20446;-89
2022/01/21 04:00:29;;;;;;;12.57;3.67;;;3.30;99.90;;;;;;5095285;28;20435;-88
2022/01/21 04:02:57;;;;;;;11.47;3.07;;;3.30;99.90;;;;;;5095743;28;20221;-83
2022/01/21 04:05:25;;;;;;;11.63;2.70;;;3.20;99.90;;;;;;5104880;28;20441;-85
2022/01/21 04:07:52;;;;;;;11.40;3.17;;;3.20;99.90;;;;;;5112286;28;20464;-83
2022/01/21 04:10:19;;;;;;;13.27;3.00;;;3.30;99.90;;;;;;5111955;28;20541;-84
2022/01/21 04:12:48;;;;;;;11.17;3.10;;;3.20;99.90;;;;;;5108112;28;20909;-87
2022/01/21 04:15:22;;;;;;;13.73;3.33;;;3.30;99.90;;;;;;5095871;28;20568;-88
2022/01/21 04:17:51;;;;;;;12.83;2.60;;;3.20;99.90;;;;;;5095124;28;20518;-83
2022/01/21 04:20:24;;;;;;;10.93;3.30;;;3.20;99.90;;;;;;5096995;28;20939;-85
2022/01/21 04:22:53;;;;;;;17.50;3.95;;;3.30;99.90;;;;;;5094174;28;20445;-86
2022/01/21 04:25:22;;;;;;;15.20;3.83;;;3.60;99.90;;;;;;5094886;28;20693;-85
2022/01/21 04:27:49;;;;;;;19.83;3.67;;;3.50;99.90;;;;;;5094434;28;20935;-90
2022/01/21 04:30:16;;;;;;;11.37;3.17;;;3.60;99.90;;;;;;5094551;28;20934;-89
2022/01/21 04:32:45;;;;;;;13.27;3.00;;;3.50;99.90;;;;;;5094095;28;20454;-87
2022/01/21 04:35:14;;;;;;;9.67;2.83;;;3.50;99.90;;;;;;5094423;28;20453;-83
2022/01/21 04:37:50;;;;;;;13.87;3.03;;;3.30;99.90;;;;;;5094232;28;20435;-85
2022/01/21 04:40:27;;;;;;;10.97;3.30;;;3.40;99.90;;;;;;5094664;28;20437;-83
2022/01/21 04:48:33;;;;;;;10.07;2.93;;;3.50;99.90;;;;;;5094563;28;20425;-85
2022/01/21 04:51:12;;;;;;;14.47;3.90;;;3.60;99.90;;;;;;5094513;28;20454;-83
2022/01/21 04:53:41;;;;;;;13.60;2.93;;;3.50;99.90;;;;;;5094862;28;20472;-84
2022/01/21 04:56:10;;;;;;;18.37;3.33;;;3.50;99.90;;;;;;5094449;28;20955;-81
2022/01/21 04:58:37;;;;;;;14.73;2.97;;;3.40;99.90;;;;;;5094389;28;20504;-83
2022/01/21 05:01:06;;;;;;;15.20;3.27;;;3.40;99.90;;;;;;5094544;28;20442;-80
2022/01/21 05:03:37;;;;;;;13.63;3.20;;;3.30;99.90;;;;;;5094790;28;20452;-85
2022/01/21 05:06:08;;;;;;;15.10;3.60;;;3.20;99.90;;;;;;5094349;28;20515;-87
2022/01/21 05:08:44;;;;;;;19.53;3.77;;;3.20;99.90;;;;;;5094062;28;20464;-86
2022/01/21 05:11:13;;;;;;;14.83;3.83;;;3.20;99.90;;;;;;5094421;28;20468;-87
2022/01/21 05:13:44;;;;;;;14.90;3.43;;;3.20;99.90;;;;;;5094266;28;20465;-82
2022/01/21 05:16:29;;;;;;;14.23;3.77;;;3.20;99.90;;;;;;5093931;28;20430;-85
2022/01/21 05:18:59;;;;;;;15.20;4.67;;;3.20;99.90;;;;;;5094170;28;20817;-86
2022/01/21 05:21:26;;;;;;;13.37;4.27;;;3.10;99.90;;;;;;5093800;28;20481;-83
2022/01/21 05:23:55;;;;;;;12.70;4.50;;;3.00;99.90;;;;;;5094278;28;20453;-87
2022/01/21 05:26:35;;;;;;;22.57;4.93;;;2.90;99.90;;;;;;5093878;28;20597;-85
2022/01/21 05:29:10;;;;;;;13.57;4.30;;;2.90;99.90;;;;;;5094203;28;20288;-84
2022/01/21 05:31:37;;;;;;;20.33;4.53;;;2.90;99.90;;;;;;5093670;28;20476;-87
2022/01/21 05:34:06;;;;;;;16.67;4.57;;;2.90;99.90;;;;;;5093925;28;20446;-84
2022/01/21 05:36:37;;;;;;;17.47;4.00;;;2.90;99.90;;;;;;5093673;28;20453;-85
2022/01/21 05:39:05;;;;;;;15.07;4.10;;;3.10;99.90;;;;;;5093850;28;20878;-82
2022/01/21 05:41:33;;;;;;;14.77;4.43;;;2.90;99.90;;;;;;5092712;28;20588;-83
2022/01/21 05:44:03;;;;;;;20.80;4.20;;;3.00;99.90;;;;;;5093545;28;20441;-87
2022/01/21 05:46:52;;;;;;;20.30;4.87;;;2.90;99.90;;;;;;5093321;28;20434;-85
2022/01/21 05:49:28;;;;;;;20.38;5.18;;;2.90;99.90;;;;;;5092503;28;20878;-85
2022/01/21 05:52:04;;;;;;;25.10;5.13;;;3.00;99.90;;;;;;5093195;28;20224;-85
2022/01/21 05:54:31;;;;;;;22.97;4.43;;;3.00;99.90;;;;;;5093711;28;20438;-85
2022/01/21 05:57:01;;;;;;;17.97;4.87;;;3.00;99.90;;;;;;5093274;28;20452;-83
2022/01/21 05:59:31;;;;;;;18.83;3.97;;;3.00;99.90;;;;;;5093304;28;20430;-85
2022/01/21 06:01:58;;;;;;;19.23;3.80;;;2.90;99.90;;;;;;5081584;28;20565;-84
2022/01/21 06:04:26;;;;;;;17.43;4.33;;;2.90;99.90;;;;;;5072455;28;20434;-87
2022/01/21 06:06:53;;;;;;;15.90;4.40;;;2.90;99.90;;;;;;5072613;28;20457;-85
2022/01/21 06:09:27;;;;;;;14.80;3.93;;;2.80;99.90;;;;;;5073099;28;20458;-87
2022/01/21 06:11:56;;;;;;;16.23;4.78;;;3.00;99.90;;;;;;5072317;28;20435;-87
2022/01/21 06:14:24;;;;;;;16.10;4.70;;;3.00;99.90;;;;;;5073106;28;20209;-86
2022/01/21 06:16:57;;;;;;;16.53;4.03;;;2.90;99.90;;;;;;5073045;28;20538;-88
2022/01/21 06:19:25;;;;;;;14.33;3.60;;;3.00;99.90;;;;;;5072696;28;20447;-84
2022/01/21 06:21:52;;;;;;;10.00;3.30;;;3.10;99.90;;;;;;5093176;28;20469;-84
2022/01/21 06:24:22;;;;;;;13.10;4.03;;;3.10;99.90;;;;;;5092974;28;20924;-83
2022/01/21 06:26:51;;;;;;;18.67;3.83;;;3.10;99.90;;;;;;5093191;28;20453;-84
2022/01/21 06:29:18;;;;;;;13.20;3.63;;;3.00;99.90;;;;;;5092865;28;20441;-82
2022/01/21 06:31:48;;;;;;;13.77;4.17;;;3.10;99.90;;;;;;5092747;28;20969;-82
2022/01/21 06:34:20;;;;;;;13.73;3.65;;;3.00;99.90;;;;;;5092983;28;20426;-85
2022/01/21 06:36:54;;;;;;;21.33;3.73;;;3.00;99.90;;;;;;5093131;28;20201;-83
2022/01/21 06:39:22;;;;;;;14.17;4.57;;;3.10;99.90;;;;;;5093396;28;20485;-81
2022/01/21 06:41:55;;;;;;;20.37;3.43;;;3.10;99.90;;;;;;5093068;28;20476;-87
2022/01/21 06:44:24;;;;;;;12.73;3.93;;;3.10;99.90;;;;;;5092875;28;20480;-82
2022/01/21 06:46:51;;;;;;;14.57;4.00;;;3.10;99.90;;;;;;5092630;28;20436;-84
2022/01/21 06:49:18;;;;;;;18.63;3.77;;;3.20;99.90;;;;;;5092742;28;20446;-83
2022/01/21 06:51:45;;;;;;;9.63;3.90;;;3.30;99.90;;;;;;5086674;28;20468;-81
2022/01/21 06:54:14;;;;;;;11.10;3.97;;;3.30;99.90;;;;;;5094830;28;20449;-83
2022/01/21 06:56:41;;;;;;;16.03;3.93;;;3.20;99.90;;;;;;5094680;28;20429;-83
2022/01/21 06:59:08;;;;;;;19.77;4.47;;;3.20;99.90;;;;;;5097015;28;20438;-85
2022/01/21 07:01:37;;;;;;;11.00;4.13;;;3.20;99.90;;;;;;5096490;28;20453;-87
2022/01/21 07:04:10;;;;;;;11.77;3.80;;;3.20;99.90;;;;;;5097001;28;20452;-85
2022/01/21 07:06:39;;;;;;;14.13;3.40;;;3.20;99.90;;;;;;5096473;28;20449;-86
2022/01/21 07:09:07;;;;;;;11.23;3.90;;;3.20;99.90;;;;;;5097409;28;20816;-88
2022/01/21 07:11:37;;;;;;;11.40;3.67;;;3.20;99.90;;;;;;5096446;28;20441;-87
2022/01/21 07:14:05;;;;;;;12.73;3.73;;;3.20;99.90;;;;;;5096676;28;20529;-89
2022/01/21 07:16:35;;;;;;;18.27;3.57;;;3.20;99.90;;;;;;5096817;28;20453;-86
2022/01/21 07:19:04;;;;;;;14.37;3.90;;;3.20;99.90;;;;;;5096741;28;20442;-86
2022/01/21 07:21:33;;;;;;;10.40;3.30;;;3.10;99.90;;;;;;5096213;28;20453;-86
2022/01/21 07:24:01;;;;;;;12.77;4.03;;;3.10;99.90;;;;;;5096494;28;20449;-87
2022/01/21 07:26:34;;;;;;;23.17;4.47;;;3.00;99.90;;;;;;5096408;28;20434;-88
2022/01/21 07:29:04;;;;;;;20.50;5.00;;;3.00;99.90;;;;;;5096349;28;20435;-92
2022/01/21 07:31:31;;;;;;;19.17;4.97;;;3.10;99.90;;;;;;5096501;28;20469;-85
2022/01/21 07:34:04;;;;;;;12.07;3.50;;;3.10;99.90;;;;;;5097832;28;20941;-87
2022/01/21 07:36:35;;;;;;;17.80;4.00;;;3.10;99.90;;;;;;5113953;28;20449;-88
2022/01/21 07:39:05;;;;;;;16.87;4.00;;;3.10;99.90;;;;;;5116794;28;20440;-87
2022/01/21 07:41:40;;;;;;;14.87;4.87;;;3.10;99.90;;;;;;5116622;28;20605;-88
2022/01/21 07:44:10;;;;;;;19.02;4.53;;;3.00;99.90;;;;;;5116361;28;25119;-87
2022/01/21 07:46:44;;;;;;;15.60;4.63;;;3.10;99.90;;;;;;5116581;28;20658;-88
2022/01/21 07:49:17;;;;;;;12.60;4.10;;;3.20;99.90;;;;;;5116503;28;20440;-88
2022/01/21 07:51:45;;;;;;;15.37;4.40;;;3.30;99.90;;;;;;5116183;28;20451;-83
2022/01/21 07:54:13;;;;;;;16.93;4.47;;;3.30;99.90;;;;;;5116067;28;20802;-86
2022/01/21 07:56:41;;;;;;;12.53;4.00;;;3.20;99.90;;;;;;5116003;28;20425;-90
2022/01/21 07:59:12;;;;;;;11.83;3.50;;;3.20;99.90;;;;;;5116289;28;20445;-88
2022/01/21 08:01:39;;;;;;;11.97;6.17;;;3.20;99.90;;;;;;5102737;28;20462;-83
2022/01/21 08:04:10;;;;;;;11.03;3.83;;;3.30;99.90;;;;;;5098477;28;20486;-89
2022/01/21 08:06:37;;;;;;;10.70;4.40;;;3.40;99.90;;;;;;5095222;28;20453;-87
2022/01/21 08:09:07;;;;;;;15.30;5.13;;;3.40;99.90;;;;;;5095863;28;20437;-88
2022/01/21 08:11:40;;;;;;;27.00;4.23;;;3.80;99.90;;;;;;5095578;28;20232;-87
2022/01/21 08:14:09;;;;;;;10.03;3.80;;;3.80;99.90;;;;;;5095491;28;20268;-86
2022/01/21 08:16:36;;;;;;;15.37;4.30;;;3.80;99.90;;;;;;5095047;28;20460;-86
2022/01/21 08:19:05;;;;;;;16.27;4.43;;;3.70;99.90;;;;;;5095384;28;20469;-86
2022/01/21 08:21:33;;;;;;;14.70;3.83;;;3.70;99.90;;;;;;5095292;28;20457;-87
2022/01/21 08:24:00;;;;;;;16.20;4.47;;;3.70;99.90;;;;;;5099214;28;21064;-84
2022/01/21 08:26:29;;;;;;;12.07;3.17;;;3.70;99.90;;;;;;5102960;28;20931;-85
2022/01/21 08:28:59;;;;;;;13.60;4.23;;;3.70;99.90;;;;;;5099777;28;20520;-84
2022/01/21 08:31:28;;;;;;;15.10;3.90;;;3.70;99.90;;;;;;5109187;28;20465;-88
2022/01/21 08:33:55;;;;;;;14.32;4.50;;;3.70;99.90;;;;;;5109525;28;20447;-81
2022/01/21 08:36:26;;;;;;;16.20;4.00;;;3.60;99.90;;;;;;5113952;28;20196;-82
2022/01/21 08:38:59;;;;;;;15.10;3.50;;;3.50;99.90;;;;;;5115498;28;20487;-85
2022/01/21 08:41:32;;;;;;;11.47;3.23;;;3.50;99.90;;;;;;5115691;28;20453;-90
2022/01/21 08:44:02;;;;;;;12.33;3.13;;;3.50;99.90;;;;;;5115191;28;20592;-88
2022/01/21 08:46:30;;;;;;;15.53;3.63;;;3.50;99.90;;;;;;5103794;28;20449;-90
2022/01/21 08:49:07;;;;;;;14.03;4.13;;;3.60;99.90;;;;;;5095452;28;20491;-87
2022/01/21 08:51:47;;;;;;;11.63;3.90;;;3.60;99.90;;;;;;5094724;28;20564;-86
2022/01/21 08:54:15;;;;;;;13.63;3.47;;;3.60;99.90;;;;;;5095000;28;20491;-86
2022/01/21 08:56:43;;;;;;;10.13;4.05;;;3.60;99.90;;;;;;5094462;28;20458;-87
2022/01/21 08:59:10;;;;;;;12.87;4.80;;;3.70;99.90;;;;;;5094993;28;20549;-88
2022/01/21 09:01:41;;;;;;;14.93;3.57;;;3.60;99.90;;;;;;5095166;28;20446;-86
2022/01/21 09:04:09;;;;;;;13.27;3.13;;;3.60;99.90;;;;;;5094523;28;20553;-86
2022/01/21 09:06:36;;;;;;;14.00;3.67;;;3.60;99.90;;;;;;5094489;28;20465;-84
2022/01/21 09:09:06;;;;;;;15.20;3.57;;;3.60;99.90;;;;;;5094681;28;20458;-86
2022/01/21 09:11:34;;;;;;;9.47;3.87;;;3.70;99.90;;;;;;5094981;28;20446;-86
2022/01/21 09:14:03;;;;;;;9.53;4.00;;;3.60;99.90;;;;;;5094767;28;20418;-82
2022/01/21 09:16:32;;;;;;;10.33;3.93;;;3.50;99.90;;;;;;5094513;28;20445;-81
2022/01/21 09:19:03;;;;;;;14.43;3.83;;;3.60;99.90;;;;;;5094705;28;20422;-87
2022/01/21 09:21:34;;;;;;;16.37;4.63;;;3.70;99.90;;;;;;5093615;28;20430;-83
2022/01/21 09:24:02;;;;;;;11.63;4.13;;;3.70;99.90;;;;;;5093005;28;20485;-85
2022/01/21 09:26:30;;;;;;;18.67;4.13;;;3.80;99.90;;;;;;5095759;28;20438;-89
2022/01/21 09:29:03;;;;;;;17.40;3.73;;;3.80;99.90;;;;;;5100825;28;20440;-89
2022/01/21 09:31:35;;;;;;;15.30;4.00;;;3.90;99.90;;;;;;5104858;28;20480;-90
2022/01/21 09:34:10;;;;;;;13.07;3.87;;;4.00;99.90;;;;;;5103787;28;20442;-90
2022/01/21 09:36:44;;;;;;;14.93;3.60;;;4.10;99.90;;;;;;5105277;28;20455;-90
2022/01/21 09:39:17;;;;;;;9.53;2.93;;;4.20;99.90;;;;;;5105437;28;20250;-92
2022/01/21 09:41:50;;;;;;;14.27;3.90;;;4.30;99.90;;;;;;5106234;28;20379;-91
2022/01/21 09:44:33;;;;;;;11.43;3.70;;;4.40;99.90;;;;;;5105818;28;20488;-90
2022/01/21 09:47:21;;;;;;;13.95;4.18;;;4.40;99.90;;;;;;5108186;28;20423;-91
2022/01/21 09:49:56;;;;;;;17.53;4.00;;;4.40;99.90;;;;;;5104916;28;20519;-89
2022/01/21 09:52:29;;;;;;;10.30;4.00;;;4.40;99.90;;;;;;5105426;28;20208;-89
2022/01/21 09:55:00;;;;;;;13.70;3.87;;;4.40;99.90;;;;;;5110014;28;20207;-88
2022/01/21 09:57:44;;;;;;;14.70;4.53;;;4.40;99.90;;;;;;5109663;28;20453;-88
2022/01/21 10:00:17;;;;;;;21.93;4.30;;;4.40;99.90;;;;;;5110637;28;20449;-91
2022/01/21 10:03:07;;;;;;;8.73;3.47;;;4.50;99.90;;;;;;5111078;28;20228;-89
2022/01/21 10:05:55;;;;;;;16.73;4.57;;;4.60;99.90;;;;;;5111630;28;20223;-92
2022/01/21 10:08:24;;;;;;;13.27;4.03;;;4.60;99.90;;;;;;5110683;28;20454;-89
2022/01/21 10:11:00;;;;;;;12.87;4.03;;;4.70;99.90;;;;;;5110354;28;20201;-88
2022/01/21 10:13:31;;;;;;;16.88;5.18;;;4.80;99.90;;;;;;5109172;28;20442;-89
2022/01/21 10:16:22;;;;;;;16.83;4.70;;;4.90;99.90;;;;;;5110064;28;20212;-92
2022/01/21 10:19:10;;;;;;;11.23;3.83;;;4.90;99.90;;;;;;5106048;28;20273;-90
2022/01/21 10:21:43;;;;;;;12.87;3.23;;;5.10;99.90;;;;;;5106085;28;20592;-90
2022/01/21 10:24:17;;;;;;;12.73;3.50;;;5.10;99.90;;;;;;5102649;28;20225;-89
2022/01/21 10:26:49;;;;;;;14.90;3.70;;;5.30;99.90;;;;;;5104343;28;20677;-90
2022/01/21 10:29:19;;;;;;;13.40;3.70;;;5.40;99.90;;;;;;5108422;28;20195;-90
2022/01/21 10:31:58;;;;;;;12.03;3.20;;;5.50;99.90;;;;;;5106581;28;20277;-91
2022/01/21 10:34:28;;;;;;;11.33;2.77;;;5.70;99.90;;;;;;5110685;28;20201;-91
2022/01/21 10:37:03;;;;;;;10.07;2.60;;;5.90;99.90;;;;;;5108762;28;20205;-90
2022/01/21 10:39:32;;;;;;;10.83;3.50;;;6.10;99.90;;;;;;5107024;28;20628;-90
2022/01/21 10:42:00;;;;;;;10.50;2.50;;;6.40;99.90;;;;;;5104350;28;20236;-89
2022/01/21 10:44:50;;;;;;;8.23;2.50;;;6.40;99.90;;;;;;5115095;28;20236;-91
2022/01/21 10:47:48;;;;;;;14.93;3.03;;;6.50;99.90;;;;;;5113890;28;20193;-93
2022/01/21 10:50:18;;;;;;;13.73;2.97;;;6.50;99.90;;;;;;5117539;28;20234;-93
2022/01/21 10:52:55;;;;;;;10.23;2.70;;;6.50;99.90;;;;;;5114308;28;20228;-92
2022/01/21 10:55:35;;;;;;;16.07;3.77;;;6.30;99.90;;;;;;5124794;28;20281;-92
2022/01/21 10:58:15;;;;;;;7.67;2.77;;;6.30;99.90;;;;;;5127720;28;20252;-91
2022/01/21 11:01:00;;;;;;;13.70;2.47;;;6.40;99.90;;;;;;5118651;28;20204;-92
2022/01/21 11:03:40;;;;;;;9.53;2.70;;;6.50;99.90;;;;;;5131177;28;20234;-93
2022/01/21 11:06:22;;;;;;;12.70;2.80;;;6.40;99.90;;;;;;5134777;28;20204;-94
2022/01/21 11:09:11;;;;;;;4.20;2.00;;;6.50;99.90;;;;;;5122602;28;20211;-87
2022/01/21 11:11:42;;;;;;;17.77;3.07;;;6.60;99.90;;;;;;5116900;28;20204;-86
2022/01/21 11:14:19;;;;;;;16.63;3.73;;;6.60;99.90;;;;;;5116881;28;20193;-80
2022/01/21 11:16:50;;;;;;;10.43;2.80;;;6.70;99.90;;;;;;5116762;28;20245;-83
2022/01/21 11:19:29;;;;;;;8.03;3.07;;;6.70;99.90;;;;;;5113069;28;20197;-85
2022/01/21 11:22:04;;;;;;;13.30;3.17;;;6.70;99.90;;;;;;5117016;28;20188;-84
2022/01/21 11:24:34;;;;;;;10.43;3.60;;;6.60;99.90;;;;;;5101744;28;20301;-83
2022/01/21 11:27:13;;;;;;;13.90;3.03;;;6.60;99.90;;;;;;5096354;28;20193;-83
2022/01/21 11:29:43;;;;;;;13.93;4.05;;;6.50;99.90;;;;;;5096105;28;20827;-86
2022/01/21 11:32:13;;;;;;;15.97;4.03;;;6.50;99.90;;;;;;5099999;28;20208;-82
2022/01/21 11:34:41;;;;;;;12.97;3.97;;;6.50;99.90;;;;;;5107322;28;20554;-85
2022/01/21 11:37:10;;;;;;;10.57;3.70;;;6.60;99.90;;;;;;5107377;28;20182;-86
2022/01/21 11:39:45;;;;;;;12.27;4.37;;;6.70;99.90;;;;;;5112611;28;20616;-85
2022/01/21 11:42:15;;;;;;;10.53;3.43;;;6.70;99.90;;;;;;5101744;28;20192;-85
2022/01/21 11:44:52;;;;;;;8.37;3.53;;;6.70;99.90;;;;;;5106213;28;20236;-90
2022/01/21 11:47:38;;;;;;;12.27;3.63;;;6.60;99.90;;;;;;5104515;28;20192;-84
2022/01/21 11:50:06;;;;;;;11.77;3.80;;;6.50;99.90;;;;;;5106360;28;20730;-83
2022/01/21 11:52:45;;;;;;;11.07;4.10;;;6.30;99.90;;;;;;5106264;28;20550;-86
2022/01/21 11:55:30;;;;;;;15.03;4.30;;;6.40;99.90;;;;;;5101752;28;20201;-80
2022/01/21 11:58:14;;;;;;;13.87;3.80;;;6.50;99.90;;;;;;5112958;28;20647;-79
2022/01/21 12:01:28;;;;;;;15.07;4.43;;;6.60;99.90;;;;;;5101984;28;20284;-89
2022/01/21 12:04:00;;;;;;;17.10;4.07;;;6.60;99.90;;;;;;5097111;28;20583;-91
2022/01/21 12:06:34;;;;;;;13.10;4.03;;;6.50;99.90;;;;;;5096733;28;20207;-89
2022/01/21 12:09:04;;;;;;;14.60;3.77;;;6.70;99.90;;;;;;5097187;28;20651;-90
2022/01/21 12:11:37;;;;;;;9.73;3.90;;;6.60;99.90;;;;;;5097715;28;20228;-91
2022/01/21 12:14:55;;;;;;;14.50;3.70;;;6.70;99.90;;;;;;5095282;28;20778;-92
2022/01/21 12:17:37;;;;;;;15.13;4.70;;;6.80;99.90;;;;;;5063108;28;20216;-89
2022/01/21 12:20:09;;;;;;;10.77;3.33;;;6.80;99.90;;;;;;5076454;28;20214;-90
2022/01/21 12:22:38;;;;;;;13.33;3.20;;;6.70;99.90;;;;;;5075384;28;20213;-88
2022/01/21 12:25:09;;;;;;;11.13;3.90;;;6.70;99.90;;;;;;5095401;28;20447;-90
2022/01/21 12:27:40;;;;;;;15.60;4.03;;;6.70;99.90;;;;;;5116189;28;20200;-88
2022/01/21 12:30:27;;;;;;;10.87;3.40;;;6.60;99.90;;;;;;5112680;28;20213;-90
2022/01/21 12:32:59;;;;;;;13.10;3.73;;;6.60;99.90;;;;;;5102312;28;20223;-91
2022/01/21 12:35:27;;;;;;;9.53;3.90;;;6.80;99.90;;;;;;5116073;28;20204;-90
2022/01/21 12:41:34;;;;;;;10.67;4.00;;;6.70;99.90;;;;;;5095883;28;20197;-89
2022/01/21 12:44:10;;;;;;;15.83;4.17;;;6.60;99.90;;;;;;5095149;28;20239;-90
2022/01/21 12:46:39;;;;;;;10.60;3.83;;;6.50;99.90;;;;;;5095478;28;20349;-90
2022/01/21 12:49:47;;;;;;;11.47;4.30;;;6.60;99.90;;;;;;5095928;28;20306;-90
2022/01/21 12:52:27;;;;;;;13.43;4.00;;;6.50;99.90;;;;;;5098880;28;20211;-88
2022/01/21 12:57:44;;;;;;;16.20;4.20;;;6.60;99.90;;;;;;5111013;28;20203;-84
2022/01/21 13:00:14;;;;;;;13.33;4.17;;;6.60;99.90;;;;;;5113091;28;20596;-83
2022/01/21 13:02:40;;;;;;;13.63;4.30;;;6.60;99.90;;;;;;5115145;28;20542;-82
2022/01/21 13:05:14;;;;;;;19.17;5.17;;;6.60;99.90;;;;;;5114368;28;20235;-84
2022/01/21 13:07:51;;;;;;;10.27;4.30;;;6.60;99.90;;;;;;5114686;28;20708;-83
2022/01/21 13:10:24;;;;;;;10.93;4.10;;;6.60;99.90;;;;;;5113925;28;20191;-87
2022/01/21 13:13:14;;;;;;;13.23;4.33;;;6.60;99.90;;;;;;5096219;28;20210;-82
2022/01/21 13:15:45;;;;;;;12.87;4.00;;;6.60;99.90;;;;;;5112569;28;20296;-84
2022/01/21 13:18:14;;;;;;;11.10;4.23;;;6.60;99.90;;;;;;5114478;28;20215;-85
2022/01/21 13:20:43;;;;;;;14.57;4.27;;;6.70;99.90;;;;;;5114672;28;20195;-85
2022/01/21 13:23:13;;;;;;;10.03;4.00;;;6.80;99.90;;;;;;5114332;28;20273;-84
2022/01/21 13:25:45;;;;;;;15.23;4.83;;;6.70;99.90;;;;;;5114108;28;20232;-86
2022/01/21 13:28:12;;;;;;;12.17;4.43;;;6.80;99.90;;;;;;5114462;28;20200;-85
2022/01/21 13:30:40;;;;;;;16.00;4.13;;;6.80;99.90;;;;;;5108356;28;20336;-87
2022/01/21 13:33:11;;;;;;;12.10;4.50;;;6.70;99.90;;;;;;5094267;28;20251;-86
2022/01/21 13:35:42;;;;;;;15.40;3.67;;;6.80;99.90;;;;;;5093887;28;20204;-79
2022/01/21 13:38:12;;;;;;;17.37;3.77;;;6.80;99.90;;;;;;5094100;28;20229;-80
2022/01/21 13:40:42;;;;;;;17.23;3.77;;;6.70;99.90;;;;;;5093764;28;20200;-81
2022/01/21 13:43:14;;;;;;;8.67;3.60;;;6.70;99.90;;;;;;5093292;28;20204;-84
2022/01/21 13:45:43;;;;;;;15.73;4.10;;;6.70;99.90;;;;;;5092860;28;20229;-82
2022/01/21 13:48:12;;;;;;;13.03;4.50;;;6.80;99.90;;;;;;5093518;28;20200;-82
2022/01/21 13:50:45;;;;;;;14.13;3.63;;;6.70;99.90;;;;;;5093315;28;20212;-81
2022/01/21 13:53:13;;;;;;;16.83;4.43;;;6.80;99.90;;;;;;5093479;28;20513;-84
2022/01/21 13:55:42;;;;;;;12.20;4.03;;;6.80;99.90;;;;;;5093486;28;20201;-80
2022/01/21 13:58:11;;;;;;;16.83;3.77;;;6.90;99.90;;;;;;5093375;28;20693;-83
2022/01/21 14:00:40;;;;;;;17.37;3.90;;;6.90;99.90;;;;;;5094248;28;20208;-92